createdAt,value
2019-06-07T00:00:35.020Z,13.68
2019-06-07T00:02:07.998Z,13.50
2019-06-07T00:03:10.720Z,13.54
2019-06-07T00:05:00.482Z,13.42
2019-06-07T00:06:00.537Z,13.52
2019-06-07T00:07:53.534Z,13.56
2019-06-07T00:08:53.585Z,13.57
2019-06-07T00:10:46.569Z,13.50
2019-06-07T00:11:46.630Z,13.49
2019-06-07T00:13:39.655Z,13.41
2019-06-07T00:14:39.681Z,13.25
2019-06-07T00:16:32.669Z,13.41
2019-06-07T00:17:32.727Z,13.42
2019-06-07T00:19:25.739Z,13.47
2019-06-07T00:20:25.784Z,13.35
2019-06-07T00:22:31.619Z,13.41
2019-06-07T00:23:22.509Z,13.37
2019-06-07T00:25:15.113Z,13.30
2019-06-07T00:26:13.446Z,13.27
2019-06-07T00:28:04.874Z,13.13
2019-06-07T00:29:04.917Z,13.13
2019-06-07T00:30:57.907Z,13.08
2019-06-07T00:31:57.961Z,13.15
2019-06-07T00:33:50.965Z,13.01
2019-06-07T00:34:51.006Z,12.90
2019-06-07T00:36:43.994Z,12.94
2019-06-07T00:37:44.053Z,12.97
2019-06-07T00:39:37.048Z,12.91
2019-06-07T00:40:37.096Z,12.86
2019-06-07T00:42:30.079Z,12.85
2019-06-07T00:43:30.139Z,12.87
2019-06-07T00:45:24.664Z,12.85
2019-06-07T00:46:25.300Z,12.87
2019-06-07T00:48:26.550Z,12.85
2019-06-07T00:49:32.273Z,12.70
2019-06-07T00:51:09.229Z,12.62
2019-06-07T00:52:09.274Z,12.67
2019-06-07T00:54:02.274Z,12.62
2019-06-07T00:55:02.316Z,12.62
2019-06-07T00:56:55.309Z,12.61
2019-06-07T00:57:55.370Z,12.60
2019-06-07T00:59:48.375Z,12.50
2019-06-07T01:00:48.418Z,12.49
2019-06-07T01:02:41.420Z,12.55
2019-06-07T01:03:41.459Z,12.53
2019-06-07T01:05:35.969Z,12.50
2019-06-07T01:06:36.001Z,12.49
2019-06-07T01:08:30.246Z,12.47
2019-06-07T01:09:29.064Z,12.49
2019-06-07T01:11:24.061Z,12.64
2019-06-07T01:12:23.887Z,12.50
2019-06-07T01:14:18.643Z,12.54
2019-06-07T01:15:17.540Z,12.46
2019-06-07T01:17:23.393Z,12.47
2019-06-07T01:20:01.196Z,12.29
2019-06-07T01:21:01.244Z,12.29
2019-06-07T01:22:54.223Z,12.18
2019-06-07T01:24:10.843Z,12.07
2019-06-07T01:25:47.336Z,12.17
2019-06-07T01:26:47.329Z,12.24
2019-06-07T01:28:40.344Z,12.29
2019-06-07T01:29:40.368Z,12.21
2019-06-07T01:31:33.362Z,12.21
2019-06-07T01:32:33.417Z,12.12
2019-06-07T01:34:26.944Z,12.20
2019-06-07T01:35:26.450Z,12.22
2019-06-07T01:37:22.510Z,12.22
2019-06-07T01:38:21.979Z,12.21
2019-06-07T01:40:12.499Z,12.22
2019-06-07T01:41:12.541Z,12.20
2019-06-07T01:43:05.542Z,12.29
2019-06-07T01:44:05.585Z,12.10
2019-06-07T01:45:58.566Z,12.10
2019-06-07T01:46:58.627Z,12.12
2019-06-07T01:48:51.628Z,12.07
2019-06-07T01:49:51.667Z,12.07
2019-06-07T01:51:44.656Z,12.13
2019-06-07T01:52:44.764Z,12.07
2019-06-07T01:54:58.526Z,12.22
2019-06-07T01:55:37.762Z,12.13
2019-06-07T01:57:44.753Z,12.07
2019-06-07T01:58:30.807Z,12.06
2019-06-07T02:00:25.875Z,12.12
2019-06-07T02:01:25.907Z,12.12
2019-06-07T02:03:18.651Z,12.04
2019-06-07T02:04:19.235Z,12.07
2019-06-07T02:06:09.935Z,12.02
2019-06-07T02:07:09.946Z,12.00
2019-06-07T02:09:03.096Z,11.91
2019-06-07T02:10:03.001Z,11.90
2019-06-07T02:11:55.978Z,11.91
2019-06-07T02:12:56.035Z,11.91
2019-06-07T02:14:49.039Z,12.00
2019-06-07T02:15:49.078Z,11.94
2019-06-07T02:17:42.080Z,11.87
2019-06-07T02:19:00.777Z,11.94
2019-06-07T02:20:35.121Z,11.90
2019-06-07T02:21:35.164Z,11.84
2019-06-07T02:23:31.119Z,11.97
2019-06-07T02:24:29.590Z,11.87
2019-06-07T02:26:22.802Z,11.87
2019-06-07T02:27:24.223Z,11.87
2019-06-07T02:29:14.239Z,11.73
2019-06-07T02:32:07.298Z,11.73
2019-06-07T02:33:07.346Z,11.78
2019-06-07T02:35:00.327Z,11.63
2019-06-07T02:36:00.391Z,11.68
2019-06-07T02:37:53.402Z,11.65
2019-06-07T02:38:53.458Z,11.63
2019-06-07T02:40:46.448Z,11.60
2019-06-07T02:41:46.487Z,11.69
2019-06-07T02:43:39.466Z,11.68
2019-06-07T02:44:40.484Z,11.65
2019-06-07T02:46:41.445Z,11.68
2019-06-07T02:47:36.052Z,11.70
2019-06-07T02:49:30.547Z,11.66
2019-06-07T02:50:26.353Z,11.70
2019-06-07T02:52:18.614Z,11.65
2019-06-07T02:53:18.667Z,11.63
2019-06-07T02:55:11.735Z,11.54
2019-06-07T02:56:37.274Z,11.55
2019-06-07T02:58:04.712Z,11.47
2019-06-07T02:59:04.776Z,11.48
2019-06-07T03:01:07.808Z,11.48
2019-06-07T03:01:57.795Z,11.51
2019-06-07T03:03:50.794Z,11.51
2019-06-07T03:04:50.848Z,11.45
2019-06-07T03:06:44.318Z,11.36
2019-06-07T03:07:45.279Z,11.25
2019-06-07T03:09:37.847Z,11.25
2019-06-07T03:10:37.843Z,11.19
2019-06-07T03:12:32.312Z,11.44
2019-06-07T03:13:30.591Z,11.40
2019-06-07T03:15:35.443Z,11.48
2019-06-07T03:16:23.011Z,11.40
2019-06-07T03:18:16.010Z,11.40
2019-06-07T03:19:16.051Z,11.40
2019-06-07T03:21:09.054Z,11.41
2019-06-07T03:22:09.118Z,11.47
2019-06-07T03:24:02.120Z,11.47
2019-06-07T03:25:02.162Z,11.45
2019-06-07T03:27:34.231Z,11.43
2019-06-07T03:27:55.204Z,11.50
2019-06-07T03:29:48.200Z,11.52
2019-06-07T03:31:01.493Z,11.52
2019-06-07T03:32:47.275Z,11.47
2019-06-07T03:33:44.631Z,11.48
2019-06-07T03:35:35.337Z,11.41
2019-06-07T03:36:35.378Z,11.59
2019-06-07T03:38:28.277Z,11.48
2019-06-07T03:39:28.385Z,11.48
2019-06-07T03:41:20.381Z,11.57
2019-06-07T03:42:20.419Z,11.50
2019-06-07T03:44:13.400Z,11.47
2019-06-07T03:45:13.469Z,11.52
2019-06-07T03:47:06.479Z,11.52
2019-06-07T03:48:06.505Z,11.62
2019-06-07T03:49:59.492Z,11.68
2019-06-07T03:51:04.575Z,11.62
2019-06-07T03:52:52.543Z,11.66
2019-06-07T03:53:52.592Z,11.72
2019-06-07T03:55:45.577Z,11.66
2019-06-07T03:56:45.634Z,11.75
2019-06-07T03:58:49.237Z,11.83
2019-06-07T03:59:40.960Z,11.84
2019-06-07T04:01:32.373Z,11.94
2019-06-07T04:02:33.931Z,11.91
2019-06-07T04:04:24.738Z,12.00
2019-06-07T04:05:24.777Z,12.04
2019-06-07T04:07:17.785Z,12.10
2019-06-07T04:08:17.826Z,12.13
2019-06-07T04:10:10.818Z,12.18
2019-06-07T04:11:10.875Z,12.07
2019-06-07T04:13:03.877Z,12.28
2019-06-07T04:14:03.919Z,12.21
2019-06-07T04:15:56.903Z,12.36
2019-06-07T04:16:56.961Z,12.42
2019-06-07T04:18:49.962Z,12.50
2019-06-07T04:19:50.001Z,12.55
2019-06-07T04:21:43.198Z,12.49
2019-06-07T04:22:43.044Z,12.49
2019-06-07T04:24:38.928Z,12.47
2019-06-07T04:25:39.445Z,12.55
2019-06-07T04:27:30.531Z,12.50
2019-06-07T04:29:15.654Z,12.43
2019-06-07T04:30:22.154Z,12.50
2019-06-07T04:31:22.353Z,12.54
2019-06-07T04:33:15.197Z,12.61
2019-06-07T04:34:15.243Z,12.57
2019-06-07T04:36:08.247Z,12.53
2019-06-07T04:37:08.286Z,12.47
2019-06-07T04:39:01.297Z,12.47
2019-06-07T04:40:01.328Z,12.49
2019-06-07T04:41:54.312Z,12.50
2019-06-07T04:42:54.368Z,12.55
2019-06-07T04:44:47.370Z,12.53
2019-06-07T04:45:51.089Z,12.57
2019-06-07T04:47:42.310Z,12.60
2019-06-07T04:48:42.975Z,12.47
2019-06-07T04:50:34.263Z,12.49
2019-06-07T04:51:34.011Z,12.55
2019-06-07T04:53:26.485Z,12.62
2019-06-07T04:54:26.547Z,12.61
2019-06-07T04:56:19.552Z,12.68
2019-06-07T04:57:19.593Z,12.67
2019-06-07T04:59:12.574Z,12.82
2019-06-07T05:00:46.243Z,12.82
2019-06-07T05:02:05.637Z,12.82
2019-06-07T05:03:05.673Z,12.83
2019-06-07T05:04:58.690Z,12.87
2019-06-07T05:05:58.782Z,12.94
2019-06-07T05:07:51.709Z,12.97
2019-06-07T05:08:51.805Z,13.03
2019-06-07T05:10:44.768Z,13.11
2019-06-07T05:11:45.232Z,13.18
2019-06-07T05:13:38.947Z,13.19
2019-06-07T05:14:39.891Z,13.27
2019-06-07T05:16:34.741Z,13.38
2019-06-07T05:17:31.699Z,13.41
2019-06-07T05:19:23.919Z,13.50
2019-06-07T05:20:23.984Z,13.50
2019-06-07T05:22:16.956Z,13.57
2019-06-07T05:23:59.567Z,13.65
2019-06-07T05:25:10.034Z,13.70
2019-06-07T05:26:10.076Z,13.71
2019-06-07T05:28:03.083Z,13.68
2019-06-07T05:29:03.134Z,13.78
2019-06-07T05:31:04.734Z,13.86
2019-06-07T05:31:56.171Z,14.00
2019-06-07T05:33:49.180Z,14.07
2019-06-07T05:34:49.234Z,14.11
2019-06-07T05:36:44.905Z,14.22
2019-06-07T05:37:45.857Z,14.23
2019-06-07T05:39:38.164Z,14.37
2019-06-07T05:40:38.726Z,14.41
2019-06-07T05:42:28.319Z,14.50
2019-06-07T05:43:28.363Z,14.60
2019-06-07T05:45:21.346Z,14.68
2019-06-07T05:46:21.468Z,14.81
2019-06-07T05:48:14.416Z,15.02
2019-06-07T05:49:14.459Z,15.02
2019-06-07T05:51:07.457Z,15.22
2019-06-07T05:52:07.499Z,15.35
2019-06-07T05:54:00.499Z,15.47
2019-06-07T05:55:00.547Z,15.36
2019-06-07T05:56:53.536Z,15.44
2019-06-07T05:57:53.592Z,15.54
2019-06-07T05:59:47.635Z,15.59
2019-06-07T06:00:47.628Z,15.59
2019-06-07T06:03:03.303Z,15.61
2019-06-07T06:03:40.463Z,15.62
2019-06-07T06:05:38.286Z,15.82
2019-06-07T06:06:33.923Z,16.04
2019-06-07T06:08:26.245Z,16.36
2019-06-07T06:09:26.302Z,16.61
2019-06-07T06:11:19.294Z,17.08
2019-06-07T06:12:33.880Z,17.48
2019-06-07T06:14:12.340Z,18.05
2019-06-07T06:15:12.381Z,18.66
2019-06-07T06:17:05.368Z,20.40
2019-06-07T06:18:05.424Z,21.29
2019-06-07T06:19:58.547Z,22.55
2019-06-07T06:21:16.034Z,22.33
2019-06-07T06:22:51.521Z,22.68
2019-06-07T06:23:53.753Z,23.37
2019-06-07T06:25:50.940Z,23.69
2019-06-07T06:26:51.185Z,23.76
2019-06-07T06:28:38.358Z,23.61
2019-06-07T06:29:38.685Z,23.63
2019-06-07T06:31:30.651Z,23.54
2019-06-07T06:32:41.791Z,23.31
2019-06-07T06:34:23.745Z,23.78
2019-06-07T06:35:23.781Z,24.01
2019-06-07T06:37:16.783Z,25.23
2019-06-07T06:38:16.847Z,24.93
2019-06-07T06:40:09.896Z,25.44
2019-06-07T06:41:15.852Z,25.73
2019-06-07T06:43:02.940Z,24.81
2019-06-07T06:44:02.984Z,24.85
2019-06-07T06:45:56.017Z,24.73
2019-06-07T06:46:58.291Z,24.54
2019-06-07T06:48:54.716Z,25.40
2019-06-07T06:49:50.147Z,25.98
2019-06-07T06:51:46.955Z,26.77
2019-06-07T06:52:45.178Z,26.15
2019-06-07T06:54:40.815Z,24.96
2019-06-07T06:55:35.274Z,25.47
2019-06-07T06:57:28.275Z,26.25
2019-06-07T06:58:28.349Z,26.25
2019-06-07T07:00:21.397Z,26.73
2019-06-07T07:01:21.423Z,26.44
2019-06-07T07:03:54.267Z,26.83
2019-06-07T07:04:14.549Z,27.35
2019-06-07T07:06:25.230Z,27.32
2019-06-07T07:07:09.077Z,28.07
2019-06-07T07:09:01.127Z,26.85
2019-06-07T07:10:01.222Z,26.06
2019-06-07T07:12:10.403Z,25.78
2019-06-07T07:12:54.253Z,26.29
2019-06-07T07:14:49.579Z,26.83
2019-06-07T07:15:50.713Z,27.77
2019-06-07T07:17:53.931Z,28.85
2019-06-07T07:18:41.755Z,28.62
2019-06-07T07:20:33.454Z,28.33
2019-06-07T07:21:33.505Z,28.26
2019-06-07T07:23:26.532Z,26.92
2019-06-07T07:24:26.603Z,26.88
2019-06-07T07:26:19.635Z,26.74
2019-06-07T07:27:19.669Z,26.29
2019-06-07T07:29:12.685Z,28.12
2019-06-07T07:32:05.791Z,27.05
2019-06-07T07:33:07.055Z,27.86
2019-06-07T07:35:00.692Z,28.63
2019-06-07T07:36:38.051Z,29.10
2019-06-07T07:37:57.045Z,29.07
2019-06-07T07:39:00.493Z,28.98
2019-06-07T07:42:12.393Z,26.62
2019-06-07T07:43:38.140Z,25.72
2019-06-07T07:44:38.192Z,25.35
2019-06-07T07:46:31.220Z,25.99
2019-06-07T07:47:31.279Z,26.38
2019-06-07T07:49:24.290Z,25.95
2019-06-07T07:50:24.365Z,26.92
2019-06-07T07:52:17.399Z,25.66
2019-06-07T07:53:17.461Z,26.05
2019-06-07T07:55:10.502Z,26.03
2019-06-07T07:56:10.539Z,26.05
2019-06-07T07:58:03.578Z,25.73
2019-06-07T07:59:03.773Z,25.35
2019-06-07T08:01:07.865Z,26.23
2019-06-07T08:01:58.548Z,26.36
2019-06-07T08:03:50.687Z,27.11
2019-06-07T08:05:16.529Z,27.10
2019-06-07T08:06:42.819Z,26.06
2019-06-07T08:07:42.973Z,26.19
2019-06-07T08:09:35.923Z,25.36
2019-06-07T08:10:36.192Z,25.40
2019-06-07T08:12:29.003Z,26.38
2019-06-07T08:13:29.150Z,25.54
2019-06-07T08:15:22.068Z,24.91
2019-06-07T08:16:22.143Z,25.13
2019-06-07T08:18:15.176Z,25.95
2019-06-07T08:19:15.249Z,26.22
2019-06-07T08:21:23.693Z,26.03
2019-06-07T08:22:08.315Z,26.00
2019-06-07T08:24:04.520Z,26.81
2019-06-07T08:25:04.118Z,28.11
2019-06-07T08:27:17.713Z,28.29
2019-06-07T08:27:57.031Z,28.62
2019-06-07T08:30:03.718Z,27.89
2019-06-07T08:30:52.190Z,27.70
2019-06-07T08:32:40.617Z,27.98
2019-06-07T08:33:40.676Z,27.85
2019-06-07T08:36:41.764Z,27.21
2019-06-07T08:38:38.948Z,27.44
2019-06-07T08:39:26.863Z,27.87
2019-06-07T08:41:19.901Z,28.45
2019-06-07T08:42:25.243Z,29.20
2019-06-07T08:44:23.490Z,28.33
2019-06-07T08:45:13.052Z,27.82
2019-06-07T08:47:20.175Z,26.84
2019-06-07T08:48:26.667Z,27.87
2019-06-07T08:50:06.134Z,27.17
2019-06-07T08:51:06.310Z,27.35
2019-06-07T08:52:56.394Z,27.14
2019-06-07T08:54:08.996Z,27.12
2019-06-07T08:55:45.391Z,27.65
2019-06-07T08:56:45.453Z,28.10
2019-06-07T08:58:38.521Z,28.15
2019-06-07T08:59:38.547Z,27.26
2019-06-07T09:01:31.587Z,28.29
2019-06-07T09:02:31.645Z,28.14
2019-06-07T09:04:24.666Z,28.15
2019-06-07T09:05:24.743Z,27.36
2019-06-07T09:07:19.917Z,26.83
2019-06-07T09:08:29.986Z,26.62
2019-06-07T09:10:14.400Z,27.21
2019-06-07T09:11:11.672Z,27.48
2019-06-07T09:13:10.167Z,29.05
2019-06-07T09:14:08.826Z,28.37
2019-06-07T09:16:03.578Z,28.01
2019-06-07T09:17:04.313Z,27.10
2019-06-07T09:18:50.172Z,27.93
2019-06-07T09:19:50.231Z,28.00
2019-06-07T09:21:43.277Z,28.82
2019-06-07T09:22:43.328Z,28.39
2019-06-07T09:24:36.374Z,27.80
2019-06-07T09:25:55.939Z,27.89
2019-06-07T09:27:29.483Z,27.44
2019-06-07T09:28:29.526Z,27.29
2019-06-07T09:30:22.576Z,25.01
2019-06-07T09:31:22.644Z,25.26
2019-06-07T09:33:15.672Z,24.08
2019-06-07T09:34:15.804Z,23.68
2019-06-07T09:36:12.532Z,23.78
2019-06-07T09:37:54.818Z,23.65
2019-06-07T09:39:07.434Z,23.98
2019-06-07T09:40:19.400Z,24.26
2019-06-07T09:41:54.903Z,24.11
2019-06-07T09:43:47.493Z,23.66
2019-06-07T09:44:48.000Z,23.32
2019-06-07T09:45:48.054Z,23.24
2019-06-07T09:47:41.061Z,23.32
2019-06-07T09:49:10.583Z,23.47
2019-06-07T09:50:34.139Z,22.84
2019-06-07T09:51:34.197Z,22.65
2019-06-07T09:53:27.220Z,22.69
2019-06-07T09:55:03.063Z,22.78
2019-06-07T09:56:20.301Z,23.03
2019-06-07T09:57:20.339Z,23.25
2019-06-07T09:59:13.362Z,23.37
2019-06-07T10:00:38.642Z,23.02
2019-06-07T10:02:09.580Z,23.00
2019-06-07T10:03:17.783Z,23.00
2019-06-07T10:05:01.676Z,22.68
2019-06-07T10:06:00.389Z,22.59
2019-06-07T10:08:07.542Z,22.63
2019-06-07T10:10:45.621Z,22.69
2019-06-07T10:11:45.686Z,22.45
2019-06-07T10:13:38.726Z,22.22
2019-06-07T10:14:38.773Z,22.62
2019-06-07T10:16:45.944Z,22.75
2019-06-07T10:17:31.843Z,22.87
2019-06-07T10:19:24.966Z,22.68
2019-06-07T10:20:24.914Z,22.83
2019-06-07T10:22:17.935Z,22.69
2019-06-07T10:23:17.990Z,22.45
2019-06-07T10:25:10.986Z,22.43
2019-06-07T10:26:11.088Z,22.54
2019-06-07T10:28:04.072Z,22.78
2019-06-07T10:29:05.561Z,22.76
2019-06-07T10:30:57.131Z,22.66
2019-06-07T10:31:57.186Z,22.78
2019-06-07T10:33:50.202Z,22.91
2019-06-07T10:34:50.242Z,22.90
2019-06-07T10:36:43.265Z,22.96
2019-06-07T10:37:43.308Z,23.08
2019-06-07T10:39:48.095Z,23.21
2019-06-07T10:40:36.367Z,23.02
2019-06-07T10:42:29.400Z,23.25
2019-06-07T10:43:29.448Z,23.20
2019-06-07T10:45:22.471Z,23.18
2019-06-07T10:46:22.514Z,23.05
2019-06-07T10:48:15.533Z,23.09
2019-06-07T10:49:15.575Z,23.18
2019-06-07T10:51:08.670Z,22.91
2019-06-07T10:52:09.759Z,23.05
2019-06-07T10:54:10.919Z,23.24
2019-06-07T10:55:02.550Z,23.34
2019-06-07T10:56:54.729Z,23.13
2019-06-07T10:57:54.788Z,23.37
2019-06-07T10:59:47.798Z,22.96
2019-06-07T11:00:47.848Z,23.00
2019-06-07T11:02:40.847Z,23.10
2019-06-07T11:03:40.907Z,23.09
2019-06-07T11:05:35.447Z,23.06
2019-06-07T11:06:35.480Z,23.27
2019-06-07T11:08:28.480Z,23.58
2019-06-07T11:09:28.544Z,23.56
2019-06-07T11:11:21.559Z,23.25
2019-06-07T11:12:21.608Z,22.99
2019-06-07T11:14:14.850Z,23.25
2019-06-07T11:15:15.056Z,23.50
2019-06-07T11:17:09.252Z,23.28
2019-06-07T11:18:08.459Z,23.24
2019-06-07T11:20:00.751Z,23.40
2019-06-07T11:21:00.799Z,23.62
2019-06-07T11:22:53.818Z,23.66
2019-06-07T11:23:53.866Z,23.56
2019-06-07T11:25:46.882Z,23.27
2019-06-07T11:26:46.927Z,23.15
2019-06-07T11:28:39.927Z,23.43
2019-06-07T11:29:39.990Z,23.32
2019-06-07T11:31:33.027Z,23.17
2019-06-07T11:32:33.051Z,22.88
2019-06-07T11:34:26.042Z,23.03
2019-06-07T11:35:26.114Z,23.17
2019-06-07T11:37:19.207Z,23.23
2019-06-07T11:38:19.172Z,23.27
2019-06-07T11:40:34.936Z,22.99
2019-06-07T11:41:13.502Z,23.00
2019-06-07T11:43:06.558Z,23.00
2019-06-07T11:44:06.645Z,22.83
2019-06-07T11:45:58.310Z,23.00
2019-06-07T11:46:58.374Z,23.05
2019-06-07T11:48:51.410Z,23.32
2019-06-07T11:49:51.461Z,23.34
2019-06-07T11:51:44.485Z,23.32
2019-06-07T11:52:46.449Z,23.41
2019-06-07T11:54:37.515Z,23.54
2019-06-07T11:55:37.584Z,23.56
2019-06-07T11:57:30.594Z,23.62
2019-06-07T11:58:30.646Z,23.55
2019-06-07T12:00:23.676Z,23.69
2019-06-07T12:01:23.700Z,23.73
2019-06-07T12:03:18.016Z,23.81
2019-06-07T12:04:33.850Z,24.03
2019-06-07T12:06:10.263Z,24.24
2019-06-07T12:07:12.088Z,24.08
2019-06-07T12:09:03.345Z,23.74
2019-06-07T12:10:03.410Z,23.73
2019-06-07T12:11:56.388Z,23.78
2019-06-07T12:12:56.474Z,23.91
2019-06-07T12:14:49.477Z,23.76
2019-06-07T12:15:49.529Z,23.96
2019-06-07T12:17:42.542Z,24.16
2019-06-07T12:18:42.587Z,24.03
2019-06-07T12:20:35.600Z,23.96
2019-06-07T12:21:35.682Z,23.98
2019-06-07T12:23:28.670Z,24.03
2019-06-07T12:24:28.735Z,24.01
2019-06-07T12:26:21.751Z,24.13
2019-06-07T12:27:21.799Z,24.20
2019-06-07T12:29:14.968Z,24.36
2019-06-07T12:30:23.712Z,24.42
2019-06-07T12:32:07.867Z,24.55
2019-06-07T12:33:07.920Z,24.36
2019-06-07T12:35:00.942Z,24.33
2019-06-07T12:36:01.005Z,24.39
2019-06-07T12:37:54.029Z,24.65
2019-06-07T12:38:54.076Z,24.63
2019-06-07T12:40:57.157Z,24.66
2019-06-07T12:41:47.142Z,24.68
2019-06-07T12:43:40.155Z,24.63
2019-06-07T12:44:40.202Z,24.69
2019-06-07T12:46:33.201Z,24.63
2019-06-07T12:47:33.263Z,24.77
2019-06-07T12:49:26.269Z,24.70
2019-06-07T12:50:41.828Z,24.66
2019-06-07T12:52:20.927Z,24.69
2019-06-07T12:53:24.136Z,24.70
2019-06-07T12:55:13.938Z,24.66
2019-06-07T12:56:13.543Z,24.68
2019-06-07T12:58:05.454Z,24.73
2019-06-07T12:59:05.506Z,24.76
2019-06-07T13:00:59.765Z,24.60
2019-06-07T13:02:02.239Z,24.58
2019-06-07T13:03:51.588Z,24.57
2019-06-07T13:04:51.638Z,24.50
2019-06-07T13:06:44.649Z,24.48
2019-06-07T13:07:44.697Z,24.73
2019-06-07T13:09:37.723Z,24.66
2019-06-07T13:10:37.761Z,24.78
2019-06-07T13:12:30.776Z,24.98
2019-06-07T13:13:30.847Z,24.77
2019-06-07T13:15:25.845Z,24.68
2019-06-07T13:16:24.266Z,24.81
2019-06-07T13:18:19.022Z,24.88
2019-06-07T13:19:18.033Z,24.92
2019-06-07T13:21:09.989Z,25.07
2019-06-07T13:22:10.065Z,25.04
2019-06-07T13:24:03.023Z,25.23
2019-06-07T13:25:03.101Z,25.23
2019-06-07T13:26:56.110Z,25.29
2019-06-07T13:27:56.153Z,25.35
2019-06-07T13:29:49.159Z,25.28
2019-06-07T13:30:49.302Z,25.18
2019-06-07T13:32:42.234Z,25.23
2019-06-07T13:33:42.281Z,25.29
2019-06-07T13:35:35.284Z,25.29
2019-06-07T13:36:35.350Z,25.25
2019-06-07T13:38:29.085Z,25.26
2019-06-07T13:39:29.848Z,25.29
2019-06-07T13:41:33.692Z,25.38
2019-06-07T13:42:22.846Z,25.40
2019-06-07T13:44:14.514Z,25.55
2019-06-07T13:45:14.560Z,25.58
2019-06-07T13:47:07.582Z,25.60
2019-06-07T13:48:07.632Z,25.55
2019-06-07T13:50:00.644Z,25.68
2019-06-07T13:51:00.691Z,25.65
2019-06-07T13:52:53.695Z,25.77
2019-06-07T13:53:53.759Z,25.69
2019-06-07T13:55:46.778Z,25.60
2019-06-07T13:57:01.407Z,25.83
2019-06-07T13:58:39.870Z,25.81
2019-06-07T13:59:39.895Z,25.75
2019-06-07T14:01:32.887Z,25.72
2019-06-07T14:02:32.950Z,25.69
2019-06-07T14:04:27.056Z,25.72
2019-06-07T14:05:27.259Z,25.78
2019-06-07T14:07:19.318Z,25.81
2019-06-07T14:08:19.134Z,25.96
2019-06-07T14:10:12.127Z,26.03
2019-06-07T14:11:12.178Z,26.03
2019-06-07T14:13:05.168Z,26.06
2019-06-07T14:14:05.248Z,26.07
2019-06-07T14:15:58.253Z,26.03
2019-06-07T14:16:58.319Z,25.96
2019-06-07T14:18:51.320Z,25.87
2019-06-07T14:19:51.374Z,25.90
2019-06-07T14:21:44.388Z,25.99
2019-06-07T14:22:44.431Z,25.85
2019-06-07T14:24:37.434Z,25.91
2019-06-07T14:25:37.498Z,25.95
2019-06-07T14:27:31.843Z,26.00
2019-06-07T14:28:32.875Z,26.05
2019-06-07T14:30:24.010Z,26.00
2019-06-07T14:31:24.592Z,25.93
2019-06-07T14:33:16.668Z,25.95
2019-06-07T14:34:16.719Z,26.00
2019-06-07T14:36:09.716Z,26.09
2019-06-07T14:37:09.786Z,26.09
2019-06-07T14:39:02.802Z,26.23
2019-06-07T14:40:02.856Z,26.18
2019-06-07T14:42:08.437Z,26.25
2019-06-07T14:42:55.915Z,26.38
2019-06-07T14:44:48.936Z,26.38
2019-06-07T14:45:48.980Z,26.34
2019-06-07T14:47:41.999Z,26.48
2019-06-07T14:48:42.242Z,26.52
2019-06-07T14:50:35.065Z,26.51
2019-06-07T14:51:35.355Z,26.47
2019-06-07T14:53:28.726Z,26.48
2019-06-07T14:54:31.694Z,26.59
2019-06-07T14:56:21.193Z,26.63
2019-06-07T14:57:21.262Z,26.59
2019-06-07T14:59:14.270Z,26.55
2019-06-07T15:00:14.324Z,26.58
2019-06-07T15:02:07.372Z,26.63
2019-06-07T15:03:07.399Z,26.58
2019-06-07T15:05:00.415Z,26.45
2019-06-07T15:06:00.479Z,26.44
2019-06-07T15:07:53.472Z,26.38
2019-06-07T15:08:53.542Z,26.37
2019-06-07T15:10:46.555Z,26.43
2019-06-07T15:11:46.636Z,26.51
2019-06-07T15:13:39.920Z,26.51
2019-06-07T15:14:39.722Z,26.59
2019-06-07T15:16:33.859Z,26.75
2019-06-07T15:17:33.423Z,26.95
2019-06-07T15:19:26.657Z,26.95
2019-06-07T15:20:25.857Z,27.10
2019-06-07T15:22:18.858Z,27.14
2019-06-07T15:23:18.970Z,27.07
2019-06-07T15:25:11.939Z,26.90
2019-06-07T15:26:11.990Z,26.84
2019-06-07T15:28:04.996Z,26.77
2019-06-07T15:29:05.059Z,26.60
2019-06-07T15:30:58.089Z,26.47
2019-06-07T15:31:58.119Z,26.43
2019-06-07T15:33:51.130Z,26.28
2019-06-07T15:34:51.189Z,26.29
2019-06-07T15:36:44.204Z,26.19
2019-06-07T15:37:44.252Z,26.25
2019-06-07T15:39:37.299Z,26.10
2019-06-07T15:40:37.555Z,26.05
2019-06-07T15:42:43.883Z,26.09
2019-06-07T15:43:31.113Z,26.22
2019-06-07T15:45:23.402Z,26.26
2019-06-07T15:46:23.472Z,26.26
2019-06-07T15:48:16.480Z,26.25
2019-06-07T15:49:16.600Z,26.19
2019-06-07T15:51:09.586Z,26.23
2019-06-07T15:52:09.605Z,26.22
2019-06-07T15:54:02.635Z,26.07
2019-06-07T15:55:02.666Z,26.05
2019-06-07T15:56:55.683Z,26.03
2019-06-07T15:57:55.740Z,26.00
2019-06-07T15:59:48.735Z,25.98
2019-06-07T16:00:50.115Z,25.99
2019-06-07T16:02:41.981Z,25.95
2019-06-07T16:03:42.194Z,26.07
2019-06-07T16:05:36.418Z,26.06
2019-06-07T16:06:36.192Z,26.15
2019-06-07T16:08:28.545Z,26.16
2019-06-07T16:09:28.509Z,26.05
2019-06-07T16:11:21.545Z,26.06
2019-06-07T16:12:21.574Z,25.90
2019-06-07T16:14:14.608Z,25.75
2019-06-07T16:15:14.668Z,25.63
2019-06-07T16:17:07.679Z,25.66
2019-06-07T16:18:07.720Z,25.53
2019-06-07T16:20:00.723Z,25.53
2019-06-07T16:21:00.786Z,25.41
2019-06-07T16:22:53.806Z,25.44
2019-06-07T16:23:53.851Z,25.40
2019-06-07T16:25:46.875Z,25.28
2019-06-07T16:26:46.914Z,25.25
2019-06-07T16:28:40.448Z,25.23
2019-06-07T16:29:40.647Z,25.17
2019-06-07T16:31:32.998Z,25.18
2019-06-07T16:32:33.042Z,25.13
2019-06-07T16:34:26.081Z,25.10
2019-06-07T16:35:26.109Z,25.01
2019-06-07T16:37:19.118Z,25.08
2019-06-07T16:38:19.184Z,25.03
2019-06-07T16:40:12.197Z,24.98
2019-06-07T16:41:12.240Z,24.89
2019-06-07T16:43:16.949Z,24.70
2019-06-07T16:44:05.305Z,24.69
2019-06-07T16:45:58.313Z,24.58
2019-06-07T16:46:58.371Z,24.53
2019-06-07T16:48:51.378Z,24.39
2019-06-07T16:49:51.486Z,23.80
2019-06-07T16:51:45.416Z,22.84
2019-06-07T16:52:46.449Z,22.07
2019-06-07T16:54:37.521Z,21.62
2019-06-07T16:55:38.680Z,21.40
2019-06-07T16:57:30.566Z,21.22
2019-06-07T16:58:30.628Z,21.22
2019-06-07T17:00:23.645Z,21.17
2019-06-07T17:01:23.696Z,21.07
2019-06-07T17:03:16.689Z,20.99
2019-06-07T17:04:16.758Z,21.02
2019-06-07T17:06:10.277Z,20.96
2019-06-07T17:07:10.318Z,21.06
2019-06-07T17:09:03.331Z,20.88
2019-06-07T17:10:03.404Z,20.88
2019-06-07T17:11:56.413Z,21.12
2019-06-07T17:12:56.458Z,21.18
2019-06-07T17:14:49.455Z,20.87
2019-06-07T17:15:49.523Z,20.99
2019-06-07T17:17:43.023Z,20.88
2019-06-07T17:18:43.065Z,20.99
2019-06-07T17:20:35.579Z,21.15
2019-06-07T17:21:35.641Z,21.21
2019-06-07T17:23:28.653Z,21.25
2019-06-07T17:24:28.743Z,20.93
2019-06-07T17:26:21.720Z,20.72
2019-06-07T17:27:21.760Z,20.65
2019-06-07T17:29:14.793Z,20.60
2019-06-07T17:30:14.825Z,20.51
2019-06-07T17:32:07.820Z,20.39
2019-06-07T17:33:07.875Z,20.28
2019-06-07T17:35:00.922Z,20.14
2019-06-07T17:36:00.972Z,20.19
2019-06-07T17:37:53.980Z,20.03
2019-06-07T17:38:54.026Z,19.95
2019-06-07T17:40:47.184Z,19.92
2019-06-07T17:41:55.266Z,19.94
2019-06-07T17:43:50.106Z,19.91
2019-06-07T17:44:40.867Z,19.74
2019-06-07T17:46:33.130Z,19.73
2019-06-07T17:47:33.196Z,19.71
2019-06-07T17:49:26.201Z,19.67
2019-06-07T17:50:26.258Z,19.58
2019-06-07T17:52:19.245Z,19.45
2019-06-07T17:53:19.305Z,19.36
2019-06-07T17:55:12.313Z,19.22
2019-06-07T17:56:12.364Z,19.30
2019-06-07T17:58:05.355Z,19.08
2019-06-07T17:59:05.421Z,19.12
2019-06-07T18:00:58.442Z,19.07
2019-06-07T18:02:15.596Z,19.00
2019-06-07T18:03:51.496Z,18.95
2019-06-07T18:04:51.541Z,18.88
2019-06-07T18:06:45.301Z,18.77
2019-06-07T18:07:45.431Z,18.77
2019-06-07T18:09:37.607Z,18.73
2019-06-07T18:10:37.653Z,18.71
2019-06-07T18:12:30.721Z,18.77
2019-06-07T18:13:30.718Z,18.68
2019-06-07T18:15:23.720Z,18.78
2019-06-07T18:16:23.768Z,18.73
2019-06-07T18:18:16.769Z,18.81
2019-06-07T18:19:16.823Z,18.74
2019-06-07T18:21:09.819Z,18.68
2019-06-07T18:22:09.876Z,18.74
2019-06-07T18:24:02.889Z,18.65
2019-06-07T18:25:02.936Z,18.66
2019-06-07T18:26:55.918Z,18.62
2019-06-07T18:27:55.982Z,18.63
2019-06-07T18:29:49.002Z,18.63
2019-06-07T18:30:49.045Z,18.60
2019-06-07T18:32:42.041Z,18.66
2019-06-07T18:33:42.106Z,18.81
2019-06-07T18:35:35.105Z,18.74
2019-06-07T18:36:35.156Z,18.74
2019-06-07T18:38:28.176Z,18.66
2019-06-07T18:39:28.216Z,18.66
2019-06-07T18:41:21.224Z,18.62
2019-06-07T18:42:21.272Z,18.66